createdAt,value
2022-10-05T00:01:35.787Z,11.56
2022-10-05T00:04:22.360Z,11.70
2022-10-05T00:07:19.857Z,11.65
2022-10-05T00:10:10.677Z,11.64
2022-10-05T00:12:38.175Z,11.83
2022-10-05T00:15:33.601Z,11.90
2022-10-05T00:18:22.978Z,11.85
2022-10-05T00:20:51.246Z,11.96
2022-10-05T00:23:32.606Z,11.93
2022-10-05T00:26:14.914Z,11.62
2022-10-05T00:28:43.489Z,11.74
2022-10-05T00:31:26.745Z,11.59
2022-10-05T00:33:57.246Z,11.87
2022-10-05T00:36:26.431Z,11.62
2022-10-05T00:38:55.337Z,11.88
2022-10-05T00:41:37.714Z,11.92
2022-10-05T00:44:39.152Z,11.79
2022-10-05T00:47:51.810Z,11.59
2022-10-05T00:50:29.170Z,11.48
2022-10-05T00:53:20.164Z,11.60
2022-10-05T00:56:26.369Z,11.37
2022-10-05T00:59:22.930Z,11.36
2022-10-05T01:02:37.144Z,11.37
2022-10-05T01:05:26.606Z,11.34
2022-10-05T01:08:27.155Z,11.10
2022-10-05T01:11:22.003Z,11.35
2022-10-05T01:14:24.309Z,11.23
2022-10-05T01:17:11.327Z,11.04
2022-10-05T01:20:08.535Z,11.05
2022-10-05T01:23:12.444Z,11.15
2022-10-05T01:26:10.702Z,11.37
2022-10-05T01:29:01.756Z,11.44
2022-10-05T01:31:53.507Z,11.56
2022-10-05T01:34:49.027Z,11.42
2022-10-05T01:38:01.848Z,11.44
2022-10-05T01:40:37.799Z,11.43
2022-10-05T01:43:34.208Z,11.20
2022-10-05T01:46:24.617Z,11.28
2022-10-05T01:49:33.821Z,11.26
2022-10-05T01:52:16.176Z,11.23
2022-10-05T01:55:08.391Z,11.34
2022-10-05T01:57:50.180Z,11.35
2022-10-05T02:00:20.024Z,11.44
2022-10-05T02:03:18.441Z,11.52
2022-10-05T02:06:35.073Z,11.40
2022-10-05T02:09:16.429Z,11.45
2022-10-05T02:11:55.151Z,11.50
2022-10-05T02:14:32.191Z,11.37
2022-10-05T02:17:07.197Z,11.41
2022-10-05T02:20:06.315Z,11.29
2022-10-05T02:23:04.452Z,11.16
2022-10-05T02:25:39.528Z,11.34
2022-10-05T02:28:22.169Z,11.19
2022-10-05T02:31:04.964Z,11.20
2022-10-05T02:33:35.452Z,11.06
2022-10-05T02:36:17.106Z,11.31
2022-10-05T02:38:59.759Z,11.34
2022-10-05T02:41:45.054Z,11.23
2022-10-05T02:44:49.073Z,11.29
2022-10-05T02:47:35.343Z,10.88
2022-10-05T02:50:42.533Z,11.28
2022-10-05T02:53:25.775Z,11.31
2022-10-05T02:56:14.405Z,11.29
2022-10-05T02:59:10.974Z,11.26
2022-10-05T03:01:58.537Z,11.30
2022-10-05T03:05:36.921Z,11.30
2022-10-05T03:08:36.064Z,11.26
2022-10-05T03:11:16.614Z,11.14
2022-10-05T03:14:12.438Z,11.03
2022-10-05T03:17:00.748Z,10.68
2022-10-05T03:20:14.901Z,10.75
2022-10-05T03:23:01.902Z,10.77
2022-10-05T03:25:47.296Z,10.84
2022-10-05T03:29:02.512Z,10.97
2022-10-05T03:32:12.741Z,10.84
2022-10-05T03:34:49.465Z,10.90
2022-10-05T03:37:45.872Z,10.86
2022-10-05T03:40:52.080Z,10.90
2022-10-05T03:44:10.690Z,10.89
2022-10-05T03:47:01.761Z,10.78
2022-10-05T03:50:03.144Z,10.53
2022-10-05T03:53:04.880Z,10.59
2022-10-05T03:55:47.695Z,10.58
2022-10-05T03:58:39.596Z,10.76
2022-10-05T04:01:15.999Z,10.64
2022-10-05T04:03:58.773Z,10.65
2022-10-05T04:06:42.398Z,10.60
2022-10-05T04:09:23.205Z,10.45
2022-10-05T04:12:16.556Z,10.72
2022-10-05T04:14:53.609Z,10.58
2022-10-05T04:17:43.693Z,10.76
2022-10-05T04:20:33.683Z,10.67
2022-10-05T04:23:38.556Z,10.77
2022-10-05T04:26:19.533Z,10.97
2022-10-05T04:29:14.457Z,10.65
2022-10-05T04:32:06.266Z,10.78
2022-10-05T04:35:24.996Z,10.84
2022-10-05T04:37:57.821Z,10.78
2022-10-05T04:41:21.408Z,10.91
2022-10-05T04:44:22.509Z,11.17
2022-10-05T04:47:18.565Z,11.28
2022-10-05T04:50:17.257Z,11.12
2022-10-05T04:53:35.909Z,11.02
2022-10-05T04:56:14.735Z,11.16
2022-10-05T04:58:52.535Z,11.27
2022-10-05T05:01:36.283Z,11.29
2022-10-05T05:04:47.157Z,11.46
2022-10-05T05:07:37.758Z,11.54
2022-10-05T05:10:24.558Z,11.45
2022-10-05T05:13:26.859Z,11.12
2022-10-05T05:16:10.854Z,11.29
2022-10-05T05:19:45.538Z,11.48
2022-10-05T05:22:58.027Z,11.35
2022-10-05T05:25:59.128Z,11.36
2022-10-05T05:28:58.160Z,11.46
2022-10-05T05:31:32.488Z,11.39
2022-10-05T05:34:48.092Z,11.49
2022-10-05T05:37:35.014Z,11.62
2022-10-05T05:40:22.491Z,11.63
2022-10-05T05:43:16.936Z,11.79
2022-10-05T05:45:51.215Z,11.80
2022-10-05T05:48:46.611Z,12.23
2022-10-05T05:51:22.219Z,12.49
2022-10-05T05:54:22.524Z,12.59
2022-10-05T05:57:43.514Z,13.12
2022-10-05T06:00:37.906Z,13.78
2022-10-05T06:03:19.344Z,13.45
2022-10-05T06:05:57.073Z,13.79
2022-10-05T06:08:27.012Z,13.71
2022-10-05T06:11:04.537Z,14.39
2022-10-05T06:13:37.668Z,13.62
2022-10-05T06:16:30.351Z,13.66
2022-10-05T06:19:16.772Z,13.70
2022-10-05T06:22:18.435Z,13.68
2022-10-05T06:25:13.221Z,13.64
2022-10-05T06:28:13.739Z,13.58
2022-10-05T06:31:06.944Z,13.51
2022-10-05T06:34:03.003Z,14.02
2022-10-05T06:36:38.813Z,14.01
2022-10-05T06:39:33.335Z,13.24
2022-10-05T06:42:15.500Z,14.33
2022-10-05T06:45:26.886Z,14.23
2022-10-05T06:48:13.655Z,14.22
2022-10-05T06:50:49.070Z,14.44
2022-10-05T06:53:40.947Z,15.20
2022-10-05T06:56:31.900Z,14.73
2022-10-05T06:59:38.431Z,15.04
2022-10-05T07:02:23.997Z,14.58
2022-10-05T07:05:39.127Z,14.57
2022-10-05T07:08:18.305Z,14.60
2022-10-05T07:10:48.093Z,14.59
2022-10-05T07:13:52.942Z,14.44
2022-10-05T07:17:17.547Z,14.59
2022-10-05T07:20:22.687Z,14.50
2022-10-05T07:23:02.924Z,14.41
2022-10-05T07:25:53.260Z,14.80
2022-10-05T07:28:31.833Z,14.51
2022-10-05T07:31:26.183Z,14.64
2022-10-05T07:34:07.248Z,14.78
2022-10-05T07:37:28.375Z,14.79
2022-10-05T07:40:10.813Z,14.85
2022-10-05T07:43:00.101Z,15.24
2022-10-05T07:45:52.562Z,16.27
2022-10-05T07:48:23.235Z,15.93
2022-10-05T07:51:16.077Z,16.52
2022-10-05T07:54:05.548Z,16.32
2022-10-05T07:56:46.577Z,16.86
2022-10-05T07:59:32.208Z,15.79
2022-10-05T08:02:36.483Z,15.68
2022-10-05T08:05:13.469Z,15.60
2022-10-05T08:07:41.025Z,15.64
2022-10-05T08:10:46.168Z,15.64
2022-10-05T08:13:40.008Z,15.87
2022-10-05T08:16:17.793Z,16.03
2022-10-05T08:18:57.541Z,15.94
2022-10-05T08:21:40.358Z,15.95
2022-10-05T08:24:55.993Z,16.33
2022-10-05T08:27:43.507Z,16.53
2022-10-05T08:30:16.347Z,16.33
2022-10-05T08:33:02.857Z,16.19
2022-10-05T08:35:44.119Z,17.18
2022-10-05T08:38:19.651Z,16.72
2022-10-05T08:41:25.402Z,17.02
2022-10-05T08:44:23.370Z,17.32
2022-10-05T08:46:53.595Z,17.59
2022-10-05T08:50:10.298Z,17.56
2022-10-05T08:53:25.128Z,17.21
2022-10-05T08:56:02.769Z,16.66
2022-10-05T08:59:11.769Z,16.77
2022-10-05T09:02:20.713Z,16.31
2022-10-05T09:04:47.780Z,16.56
2022-10-05T09:07:38.322Z,15.89
2022-10-05T09:10:42.105Z,16.28
2022-10-05T09:14:00.207Z,16.29
2022-10-05T09:16:48.561Z,16.54
2022-10-05T09:19:39.232Z,16.20
2022-10-05T09:22:38.527Z,16.33
2022-10-05T09:25:45.181Z,16.48
2022-10-05T09:28:56.305Z,16.08
2022-10-05T09:32:29.907Z,16.90
2022-10-05T09:35:36.884Z,17.03
2022-10-05T09:38:36.602Z,17.44
2022-10-05T09:41:25.630Z,17.54
2022-10-05T09:44:13.577Z,18.08
2022-10-05T09:46:54.502Z,18.25
2022-10-05T09:50:08.170Z,18.95
2022-10-05T09:52:49.621Z,18.85
2022-10-05T09:55:55.155Z,19.56
2022-10-05T09:59:06.632Z,19.17
2022-10-05T10:02:09.983Z,19.36
2022-10-05T10:05:05.789Z,19.57
2022-10-05T10:07:46.814Z,19.87
2022-10-05T10:10:35.934Z,19.58
2022-10-05T10:13:52.237Z,19.60
2022-10-05T10:16:44.863Z,19.69
2022-10-05T10:19:51.517Z,19.35
2022-10-05T10:23:00.142Z,18.86
2022-10-05T10:26:04.561Z,18.59
2022-10-05T10:28:54.035Z,19.27
2022-10-05T10:31:41.626Z,19.10
2022-10-05T10:34:45.883Z,18.69
2022-10-05T10:37:27.912Z,18.54
2022-10-05T10:40:38.144Z,18.55
2022-10-05T10:43:49.805Z,18.32
2022-10-05T10:46:45.137Z,17.88
2022-10-05T10:49:37.129Z,18.10
2022-10-05T10:55:34.017Z,18.03
2022-10-05T10:59:16.970Z,18.59
2022-10-05T11:02:15.108Z,19.00
2022-10-05T11:05:09.688Z,19.26
2022-10-05T11:08:16.380Z,19.19
2022-10-05T11:11:20.599Z,18.36
2022-10-05T11:14:52.516Z,18.34
2022-10-05T11:17:35.346Z,18.85
2022-10-05T11:20:35.953Z,18.80
2022-10-05T11:23:21.221Z,18.45
2022-10-05T11:26:15.773Z,18.90
2022-10-05T11:29:43.560Z,19.15
2022-10-05T11:32:25.816Z,18.66
2022-10-05T11:35:31.166Z,19.15
2022-10-05T11:38:20.075Z,19.40
2022-10-05T11:41:17.857Z,19.16
2022-10-05T11:44:07.991Z,19.06
2022-10-05T11:47:00.412Z,18.85
2022-10-05T11:49:48.967Z,18.68
2022-10-05T11:52:28.809Z,18.81
2022-10-05T11:55:49.005Z,18.98
2022-10-05T11:58:26.641Z,18.67
2022-10-05T12:01:13.209Z,18.97
2022-10-05T12:04:11.615Z,19.01
2022-10-05T12:07:01.518Z,19.05
2022-10-05T12:10:14.975Z,18.85
2022-10-05T12:13:30.424Z,18.90
2022-10-05T12:16:36.371Z,18.89
2022-10-05T12:19:03.444Z,18.70
2022-10-05T12:21:56.838Z,18.80
2022-10-05T12:25:31.841Z,18.64
2022-10-05T12:28:08.625Z,18.62
2022-10-05T12:31:17.831Z,18.74
2022-10-05T12:34:00.222Z,18.80
2022-10-05T12:36:59.647Z,18.99
2022-10-05T12:39:57.177Z,19.28
2022-10-05T12:42:59.548Z,18.95
2022-10-05T12:45:56.977Z,18.30
2022-10-05T12:49:08.865Z,18.62
2022-10-05T12:51:45.676Z,18.61
2022-10-05T12:54:51.020Z,18.84
2022-10-05T12:57:54.858Z,19.14
2022-10-05T13:00:23.430Z,18.61
2022-10-05T13:03:37.183Z,18.86
2022-10-05T13:06:43.960Z,18.62
2022-10-05T13:09:16.522Z,19.12
2022-10-05T13:11:51.997Z,19.09
2022-10-05T13:14:40.205Z,19.43
2022-10-05T13:17:24.053Z,19.06
2022-10-05T13:20:30.478Z,18.89
2022-10-05T13:23:42.415Z,18.69
2022-10-05T13:26:19.586Z,18.61
2022-10-05T13:28:49.470Z,18.75
2022-10-05T13:31:33.099Z,18.59
2022-10-05T13:34:24.733Z,18.88
2022-10-05T13:37:31.831Z,19.13
2022-10-05T13:40:12.840Z,19.07
2022-10-05T13:43:09.648Z,18.90
2022-10-05T13:46:01.936Z,18.88
2022-10-05T13:48:54.723Z,18.54
2022-10-05T13:51:46.196Z,19.00
2022-10-05T13:54:28.758Z,18.86
2022-10-05T13:57:14.354Z,18.87
2022-10-05T14:00:05.114Z,18.84
2022-10-05T14:02:40.350Z,19.04
2022-10-05T14:05:27.218Z,18.79
2022-10-05T14:08:19.305Z,18.84
2022-10-05T14:10:48.232Z,19.21
2022-10-05T14:14:24.308Z,18.49
2022-10-05T14:16:53.049Z,18.73
2022-10-05T14:19:48.772Z,18.56
2022-10-05T14:22:25.088Z,18.11
2022-10-05T14:25:02.259Z,18.69
2022-10-05T14:27:37.046Z,18.28
2022-10-05T14:30:13.196Z,18.66
2022-10-05T14:33:03.557Z,18.75
2022-10-05T14:35:50.482Z,18.01
2022-10-05T14:38:52.362Z,18.25
2022-10-05T14:41:27.699Z,18.44
2022-10-05T14:44:11.283Z,18.62
2022-10-05T14:46:39.905Z,18.48
2022-10-05T14:49:15.827Z,18.61
2022-10-05T14:51:43.317Z,18.81
2022-10-05T14:54:41.381Z,18.90
2022-10-05T14:57:25.365Z,18.91
2022-10-05T15:00:16.730Z,18.43
2022-10-05T15:02:55.705Z,18.58
2022-10-05T15:05:44.797Z,18.39
2022-10-05T15:08:31.473Z,18.26
2022-10-05T15:11:27.072Z,18.21
2022-10-05T15:13:56.594Z,18.28
2022-10-05T15:16:34.371Z,18.06
2022-10-05T15:19:31.757Z,18.04
2022-10-05T15:22:31.862Z,18.17
2022-10-05T15:25:23.378Z,18.02
2022-10-05T15:28:24.310Z,18.13
2022-10-05T15:31:18.948Z,18.09
2022-10-05T15:34:21.263Z,18.09
2022-10-05T15:37:20.037Z,17.92
2022-10-05T15:40:00.097Z,17.66
2022-10-05T15:42:41.638Z,17.74
2022-10-05T15:45:20.838Z,17.89
2022-10-05T15:48:00.145Z,17.57
2022-10-05T15:51:07.292Z,17.59
2022-10-05T15:54:14.131Z,17.67
2022-10-05T15:56:53.862Z,17.66
2022-10-05T16:00:02.151Z,17.63
2022-10-05T16:03:13.327Z,17.49
2022-10-05T16:06:18.838Z,17.41
2022-10-05T16:09:24.854Z,17.48
2022-10-05T16:12:02.428Z,17.46
2022-10-05T16:14:41.778Z,17.69
2022-10-05T16:17:36.411Z,17.41
2022-10-05T16:20:06.752Z,17.62
2022-10-05T16:22:43.711Z,17.41
2022-10-05T16:25:26.049Z,17.63
2022-10-05T16:28:29.336Z,17.63
2022-10-05T16:31:06.845Z,17.45
2022-10-05T16:33:59.928Z,17.57
2022-10-05T16:36:58.602Z,17.58
2022-10-05T16:39:50.330Z,17.60
2022-10-05T16:42:50.519Z,17.44
2022-10-05T16:45:48.590Z,17.38
2022-10-05T16:48:27.643Z,17.28
2022-10-05T16:51:12.701Z,17.24
2022-10-05T16:54:03.085Z,16.83
2022-10-05T16:56:45.266Z,16.90
2022-10-05T16:59:33.766Z,16.71
2022-10-05T17:02:15.444Z,16.74
2022-10-05T17:05:27.318Z,16.54
2022-10-05T17:08:45.825Z,16.51
2022-10-05T17:11:34.059Z,16.41
2022-10-05T17:14:42.951Z,16.39
2022-10-05T17:18:23.788Z,15.98
2022-10-05T17:20:56.140Z,16.16
2022-10-05T17:23:47.352Z,16.17
2022-10-05T17:26:23.698Z,15.92
2022-10-05T17:29:15.934Z,15.76
2022-10-05T17:32:33.808Z,15.44
2022-10-05T17:35:04.233Z,15.63
2022-10-05T17:37:35.891Z,15.59
2022-10-05T17:40:30.553Z,15.37
2022-10-05T17:43:17.387Z,15.25
2022-10-05T17:45:44.650Z,15.23
2022-10-05T17:48:33.552Z,14.76
2022-10-05T17:51:19.838Z,15.00
2022-10-05T17:54:07.758Z,14.97
2022-10-05T17:56:46.840Z,14.79
2022-10-05T17:59:44.714Z,14.48
2022-10-05T18:02:37.205Z,14.40
2022-10-05T18:05:09.015Z,14.61
2022-10-05T18:07:38.715Z,14.45
2022-10-05T18:10:11.982Z,14.56
2022-10-05T18:12:59.145Z,14.63
2022-10-05T18:15:26.274Z,14.44
2022-10-05T18:18:19.504Z,14.66
2022-10-05T18:21:24.191Z,14.64
2022-10-05T18:23:59.980Z,14.59
2022-10-05T18:27:00.511Z,14.90
2022-10-05T18:30:08.917Z,14.90
2022-10-05T18:33:30.472Z,15.08
2022-10-05T18:36:27.343Z,15.10
2022-10-05T18:39:24.248Z,15.00
2022-10-05T18:42:11.817Z,14.94
2022-10-05T18:45:20.648Z,15.16
2022-10-05T18:48:25.977Z,15.03
2022-10-05T18:51:26.287Z,14.83
2022-10-05T18:54:33.062Z,14.93
2022-10-05T18:57:21.509Z,14.89
2022-10-05T18:59:58.756Z,14.69
2022-10-05T19:02:31.259Z,14.64
2022-10-05T19:05:48.329Z,14.51
2022-10-05T19:08:51.226Z,14.43
2022-10-05T19:11:47.053Z,14.46
2022-10-05T19:14:52.529Z,14.39
2022-10-05T19:18:01.872Z,14.31
2022-10-05T19:20:49.092Z,14.44
2022-10-05T19:23:41.232Z,14.50
2022-10-05T19:26:31.031Z,14.26
2022-10-05T19:29:36.237Z,14.52
2022-10-05T19:33:01.980Z,14.62
2022-10-05T19:35:58.918Z,14.19
2022-10-05T19:38:55.109Z,14.51
2022-10-05T19:41:31.373Z,14.18
2022-10-05T19:44:40.664Z,13.96
2022-10-05T19:47:34.456Z,14.12
2022-10-05T19:50:48.839Z,13.92
2022-10-05T19:53:36.676Z,13.82
2022-10-05T19:56:31.274Z,13.61
2022-10-05T19:59:13.935Z,13.63
2022-10-05T20:01:53.008Z,13.63
2022-10-05T20:04:42.825Z,13.53
2022-10-05T20:07:17.313Z,13.06
2022-10-05T20:10:00.330Z,13.18
2022-10-05T20:12:56.384Z,13.22
2022-10-05T20:15:46.729Z,13.19
2022-10-05T20:19:08.407Z,13.06
2022-10-05T20:21:53.020Z,12.74
2022-10-05T20:24:48.616Z,12.96
2022-10-05T20:27:46.644Z,12.74
2022-10-05T20:30:27.550Z,12.89
2022-10-05T20:33:01.966Z,12.96
2022-10-05T20:35:30.948Z,13.14
2022-10-05T20:38:01.765Z,13.10
2022-10-05T20:40:30.666Z,13.32
2022-10-05T20:42:59.139Z,13.58
2022-10-05T20:45:26.959Z,13.77
2022-10-05T20:47:55.300Z,13.69
2022-10-05T20:50:23.105Z,13.83
2022-10-05T20:52:51.188Z,13.82
2022-10-05T20:55:21.530Z,14.01
2022-10-05T20:57:49.341Z,14.15
2022-10-05T21:00:17.034Z,13.95
2022-10-05T21:02:44.520Z,14.12
2022-10-05T21:05:12.354Z,14.14
2022-10-05T21:07:41.219Z,14.15
2022-10-05T21:10:10.762Z,14.27
2022-10-05T21:12:39.083Z,14.28
2022-10-05T21:15:07.772Z,14.17
2022-10-05T21:17:37.399Z,14.25
2022-10-05T21:20:05.670Z,14.19
2022-10-05T21:22:33.529Z,14.36
2022-10-05T21:25:01.026Z,14.46
2022-10-05T21:27:28.550Z,14.30
2022-10-05T21:29:59.190Z,14.31
2022-10-05T21:32:26.969Z,14.22
2022-10-05T21:34:55.022Z,14.25
2022-10-05T21:37:22.494Z,14.29
2022-10-05T21:39:49.906Z,14.29
2022-10-05T21:42:17.452Z,14.32
2022-10-05T21:44:45.168Z,14.22
2022-10-05T21:47:12.941Z,14.11
2022-10-05T21:49:41.532Z,14.22
2022-10-05T21:52:09.259Z,14.26
2022-10-05T21:54:37.075Z,14.22
2022-10-05T21:57:04.941Z,14.31
2022-10-05T21:59:34.804Z,14.16
2022-10-05T22:02:02.735Z,14.27
2022-10-05T22:04:30.463Z,14.02
2022-10-05T22:06:58.168Z,14.10
2022-10-05T22:09:25.977Z,14.03
2022-10-05T22:11:53.735Z,14.07
2022-10-05T22:14:21.263Z,14.17
2022-10-05T22:16:49.215Z,14.01
2022-10-05T22:19:20.128Z,14.21
2022-10-05T22:21:47.554Z,14.26
2022-10-05T22:24:17.356Z,14.25
2022-10-05T22:26:48.872Z,14.15
2022-10-05T22:29:17.920Z,14.26
2022-10-05T22:31:49.182Z,14.28
2022-10-05T22:34:18.151Z,14.21
2022-10-05T22:36:46.795Z,13.94
2022-10-05T22:39:15.897Z,13.98
2022-10-05T22:41:43.848Z,14.05
2022-10-05T22:44:11.326Z,13.89
2022-10-05T22:46:39.802Z,13.90
2022-10-05T22:49:07.295Z,14.07
2022-10-05T22:51:34.863Z,13.81
2022-10-05T22:54:02.329Z,13.97
2022-10-05T22:56:31.880Z,13.96
2022-10-05T22:58:59.656Z,13.92
2022-10-05T23:01:27.356Z,13.89
2022-10-05T23:03:57.422Z,13.71
2022-10-05T23:06:27.157Z,13.70
2022-10-05T23:08:57.947Z,13.88
2022-10-05T23:11:30.501Z,13.60
2022-10-05T23:14:00.029Z,13.69
2022-10-05T23:16:29.101Z,13.75
2022-10-05T23:18:57.185Z,13.68
2022-10-05T23:21:27.723Z,13.64
2022-10-05T23:23:55.872Z,13.76
2022-10-05T23:26:26.010Z,13.48
2022-10-05T23:28:53.569Z,13.47
2022-10-05T23:31:29.024Z,13.56
2022-10-05T23:33:57.147Z,13.53
2022-10-05T23:36:28.420Z,13.38
2022-10-05T23:38:55.940Z,13.34
2022-10-05T23:41:23.714Z,13.40
2022-10-05T23:43:51.309Z,13.39
2022-10-05T23:46:19.040Z,13.60
2022-10-05T23:48:46.662Z,13.47
2022-10-05T23:51:15.708Z,13.59
2022-10-05T23:53:43.744Z,13.60
2022-10-05T23:56:11.880Z,13.63
2022-10-05T23:58:39.962Z,13.46
